Honolulu, HI (96815)

3:50 PM HST on November 28, 2014 (GMT -1000)
Kaimuki | Change Station
CLOSE
Current Station
Personal Weather Station
Location: Honolulu, HI
Elevation: 240 ft
Nearby Weather Stations

Elev 240 ft 21.27 °N, 157.80 °W | Updated 3 minutes ago

Mostly Cloudy
Mostly Cloudy
77.0 °F
Feels Like 79 °F
N
6.0
Wind Variable Wind from ENE
Gusts 13.0 mph

Today
High -- | Low -- °F
--% Chance of Precip.
Yesterday
High -- | Low -- °F
Precip. -- in
6:50 AM 5:48 PM
Waxing Crescent, 46% visible
Pressure 29.98 in
Visibility 10.0 miles
Clouds Few 3200 ft
Scattered Clouds 4100 ft
Scattered Clouds 15000 ft
Mostly Cloudy 25000 ft
Heat Index 79 °F
Dew Point 62 °F
Humidity 61%
Rainfall 0.00 in
Snow Depth Not available.
UV 2 out of 12
Pollen Not available.
Air Quality Not available.
Flu Activity Not available.
METAR PHNL 290053Z 06017G26KT 10SM FEW032 SCT041 SCT150 BKN250 27/16 A2998 RMK AO2 PK WND 06031/0002 SLP152 T02670156

More Conditions Fewer Conditions

Pressure 29.98 in
Visibility 10.0 miles
Clouds Few 3200 ft
Scattered Clouds 4100 ft
Scattered Clouds 15000 ft
Mostly Cloudy 25000 ft
Heat Index 79 °F
Dew Point 62 °F
Humidity 61%
Rainfall 0.00 in
Snow Depth Not available.
UV 2 out of 12
Pollen Not available.
Air Quality Not available.
Flu Activity Not available.
METAR PHNL 290053Z 06017G26KT 10SM FEW032 SCT041 SCT150 BKN250 27/16 A2998 RMK AO2 PK WND 06031/0002 SLP152 T02670156

More Conditions Fewer Conditions

10-Day Weather Forecast

Almanac

Astronomy

Nov. 28, 2014 Rise Set
Actual Time
Civil Twilight
Nautical Twilight
Astronomical Twilight
Moon
Length of Visible Light
Length of Day
Tomorrow will be .
, % of the Moon is Illuminated

Today's Extremes

State Highs State Lows

Community

WunderPhotos

Upload Photos

1,774,369 photos uploaded!

WunderBlogs® & News

Nearby

Air Quality

  Air Quality AQ Index Pollutant
Not available.

Snow Depth

Station Depth Elevation

Earthquake Activity

City Distance Mag. Time & Date
Minimum magnitude displayed is 2.5.

Coastal Water Temperatures

Place Temperature

Nearby Weather Stations